Time;durP1;ratioP1;P1;durP2;ratioP2;P2;SDS_P1;SDS_P2;PMS_P1;PMS_P2;Temp;Humidity;BMP_temperature;BMP_pressure;BME280_temperature;BME280_humidity;BME280_pressure;Samples;Min_cycle;Max_cycle;Signal;HPM_P1;HPM_P2
2023/05/15 00:09:04;;;;;;;2.72;0.50;;;4.20;99.90;;;;;;25967212;22;20004;-46
2023/05/15 00:19:06;;;;;;;0.73;0.50;;;4.30;99.90;;;;;;25968598;22;20011;-59
2023/05/15 00:29:08;;;;;;;3.95;0.60;;;4.40;99.90;;;;;;25966073;22;20054;-48
2023/05/15 00:39:10;;;;;;;0.90;0.40;;;4.50;99.90;;;;;;25967249;22;20496;-61
2023/05/15 00:49:13;;;;;;;0.60;0.30;;;4.50;99.90;;;;;;25965510;22;20020;-60
2023/05/15 00:59:16;;;;;;;1.40;0.30;;;4.60;99.90;;;;;;25939094;22;20493;-47
2023/05/15 01:09:18;;;;;;;0.77;0.20;;;4.70;99.90;;;;;;25938255;22;20008;-59
2023/05/15 01:19:20;;;;;;;1.17;0.30;;;4.70;99.90;;;;;;25965111;22;20129;-46
2023/05/15 01:29:32;;;;;;;1.08;0.40;;;4.70;99.90;;;;;;25965066;22;20004;-58
2023/05/15 01:39:37;;;;;;;0.30;0.20;;;4.70;99.90;;;;;;26006996;22;20004;-58
2023/05/15 01:49:44;;;;;;;0.95;0.40;;;4.60;99.90;;;;;;25964092;22;20008;-59
2023/05/15 01:59:46;;;;;;;2.47;0.30;;;4.70;99.90;;;;;;26006778;22;20007;-58
2023/05/15 02:09:52;;;;;;;0.43;0.20;;;4.60;99.90;;;;;;25971235;22;20335;-59
2023/05/15 02:19:54;;;;;;;0.70;0.30;;;4.60;99.90;;;;;;26013799;22;20007;-48
2023/05/15 02:30:08;;;;;;;1.58;0.50;;;4.60;99.90;;;;;;25970954;22;20015;-59
2023/05/15 02:40:12;;;;;;;6.95;0.70;;;4.60;99.90;;;;;;25943219;22;20003;-47
2023/05/15 02:50:14;;;;;;;0.85;0.40;;;4.60;99.90;;;;;;25937698;22;20008;-58
2023/05/15 03:00:16;;;;;;;0.40;0.30;;;4.60;99.90;;;;;;25963288;22;20057;-58
2023/05/15 03:10:20;;;;;;;0.50;0.28;;;4.60;99.90;;;;;;25935875;22;20008;-48
2023/05/15 03:20:22;;;;;;;0.55;0.35;;;4.60;99.90;;;;;;25962008;22;20004;-58
2023/05/15 03:30:23;;;;;;;0.50;0.40;;;4.60;99.90;;;;;;25962621;22;20004;-58
2023/05/15 03:40:25;;;;;;;0.65;0.30;;;4.60;99.90;;;;;;25960893;22;20008;-59
2023/05/15 03:50:28;;;;;;;0.60;0.20;;;4.50;99.90;;;;;;25905730;22;1428002;-46
2023/05/15 04:00:34;;;;;;;0.52;0.40;;;4.70;99.90;;;;;;25982646;22;20505;-46
2023/05/15 04:10:36;;;;;;;3.45;0.50;;;4.70;99.90;;;;;;25966811;22;20007;-47
2023/05/15 04:20:38;;;;;;;1.23;0.35;;;4.60;99.90;;;;;;25966805;22;20007;-48
2023/05/15 04:30:40;;;;;;;2.25;0.30;;;4.70;99.90;;;;;;25966728;22;20011;-57
2023/05/15 04:40:42;;;;;;;0.55;0.20;;;5.10;99.90;;;;;;25967451;22;20004;-49
2023/05/15 04:50:44;;;;;;;0.50;0.20;;;5.50;99.90;;;;;;25965359;22;20015;-57
2023/05/15 05:00:46;;;;;;;0.20;0.20;;;5.70;99.90;;;;;;25965356;22;20003;-45
2023/05/15 05:10:48;;;;;;;0.40;0.20;;;6.10;99.90;;;;;;25965427;22;20325;-57
2023/05/15 05:20:57;;;;;;;0.88;0.30;;;6.10;99.90;;;;;;25965169;22;20000;-57
2023/05/15 05:31:01;;;;;;;1.00;0.20;;;6.20;99.90;;;;;;26008694;22;20011;-49
2023/05/15 05:41:03;;;;;;;0.28;0.20;;;6.40;99.90;;;;;;25968375;22;20004;-57
2023/05/15 05:51:05;;;;;;;0.20;0.10;;;6.60;99.90;;;;;;25972417;22;20011;-48
2023/05/15 06:01:07;;;;;;;0.38;0.20;;;7.00;99.90;;;;;;25972309;22;20335;-46
2023/05/15 06:11:10;;;;;;;0.20;0.10;;;7.70;99.90;;;;;;25970963;22;20012;-58
2023/05/15 06:21:12;;;;;;;0.10;0.10;;;7.90;99.90;;;;;;25971493;22;20307;-61
2023/05/15 06:31:14;;;;;;;0.20;0.10;;;10.70;99.90;;;;;;25970093;22;20018;-62
2023/05/15 06:41:16;;;;;;;0.20;0.10;;;13.10;99.90;;;;;;25970984;22;20081;-51
2023/05/15 06:51:18;;;;;;;0.30;0.10;;;13.40;99.90;;;;;;25969436;22;20019;-51
2023/05/15 07:01:19;;;;;;;0.57;0.03;;;13.60;99.90;;;;;;25970304;22;20346;-61
2023/05/15 07:11:22;;;;;;;0.20;0.10;;;14.10;99.90;;;;;;25969613;22;20004;-61
2023/05/15 07:21:23;;;;;;;1.15;0.13;;;13.70;99.90;;;;;;25969299;22;20053;-51
2023/05/15 07:31:25;;;;;;;0.20;0.20;;;13.90;99.40;;;;;;25967702;22;20099;-60
2023/05/15 07:41:29;;;;;;;0.35;0.10;;;14.00;99.10;;;;;;25968364;22;20022;-48
2023/05/15 07:51:31;;;;;;;0.17;0.10;;;14.30;99.20;;;;;;25965825;22;20012;-60
2023/05/15 08:01:33;;;;;;;0.35;0.10;;;14.10;99.00;;;;;;25967036;22;19999;-50
2023/05/15 08:11:35;;;;;;;0.43;0.20;;;14.30;99.00;;;;;;25967122;22;20038;-49
2023/05/15 08:21:38;;;;;;;0.30;0.20;;;14.00;99.20;;;;;;25966556;22;20003;-60
2023/05/15 08:31:40;;;;;;;0.40;0.20;;;14.50;97.90;;;;;;25965990;22;20324;-51
2023/05/15 08:42:09;;;;;;;0.63;0.20;;;14.00;98.40;;;;;;25967960;22;20008;-60
2023/05/15 08:52:11;;;;;;;0.27;0.20;;;14.10;98.30;;;;;;25967042;22;20042;-61
2023/05/15 09:02:14;;;;;;;0.30;0.20;;;14.60;96.50;;;;;;25964358;22;20004;-60
2023/05/15 09:12:17;;;;;;;0.30;0.20;;;14.70;94.90;;;;;;25966203;22;20058;-50
2023/05/15 09:22:22;;;;;;;0.20;0.20;;;14.70;96.00;;;;;;25973984;22;20004;-60
2023/05/15 09:32:27;;;;;;;0.65;0.25;;;14.30;96.00;;;;;;26015584;22;20007;-49
2023/05/15 09:42:33;;;;;;;2.65;1.33;;;14.70;95.50;;;;;;25973175;22;20054;-60
2023/05/15 09:52:35;;;;;;;3.03;2.50;;;15.90;99.90;;;;;;25972457;22;20411;-61
2023/05/15 10:02:40;;;;;;;1.77;1.60;;;16.80;99.90;;;;;;25971208;22;20004;-61
2023/05/15 10:12:42;;;;;;;1.88;1.63;;;16.00;99.90;;;;;;25944462;22;20394;-57
2023/05/15 10:22:49;;;;;;;6.63;2.20;;;17.00;99.90;;;;;;25971273;22;20015;-50
2023/05/15 10:32:50;;;;;;;2.88;1.90;;;18.80;99.90;;;;;;26012757;22;20053;-60
2023/05/15 10:42:54;;;;;;;2.60;2.00;;;18.30;99.90;;;;;;25970684;22;20057;-48
2023/05/15 10:52:55;;;;;;;3.45;3.15;;;17.00;99.90;;;;;;25985305;22;20003;-51
2023/05/15 11:02:58;;;;;;;4.95;3.00;;;18.40;99.90;;;;;;25969373;22;20019;-49
2023/05/15 11:13:01;;;;;;;3.17;2.90;;;18.80;99.90;;;;;;25969541;22;20323;-49
2023/05/15 11:23:02;;;;;;;4.55;3.10;;;17.50;99.90;;;;;;25969033;22;20330;-60
2023/05/15 11:33:09;;;;;;;3.40;3.05;;;17.20;99.90;;;;;;25968682;22;20008;-60
2023/05/15 11:43:34;;;;;;;4.75;3.65;;;18.30;99.90;;;;;;26007841;22;20003;-60
2023/05/15 11:53:38;;;;;;;4.22;3.47;;;17.40;99.90;;;;;;26009929;22;20438;-60
2023/05/15 12:03:39;;;;;;;3.17;2.88;;;17.50;99.90;;;;;;25966339;22;20004;-61
2023/05/15 12:13:41;;;;;;;4.95;4.10;;;18.90;99.90;;;;;;25967091;22;20004;-61
2023/05/15 12:23:53;;;;;;;6.50;5.47;;;19.90;99.90;;;;;;25966847;22;20500;-48
2023/05/15 12:33:55;;;;;;;6.53;5.90;;;18.30;99.90;;;;;;26008483;22;20003;-61
2023/05/15 12:43:57;;;;;;;6.22;5.68;;;17.20;99.90;;;;;;25939268;22;20508;-51
2023/05/15 12:53:58;;;;;;;7.25;6.10;;;18.10;99.90;;;;;;25965725;22;20382;-62
2023/05/15 13:04:00;;;;;;;4.78;4.38;;;18.30;99.90;;;;;;25964356;22;20065;-51
2023/05/15 13:14:10;;;;;;;5.40;4.40;;;20.30;99.90;;;;;;25938017;22;20343;-62
2023/05/15 13:24:11;;;;;;;4.65;4.05;;;20.80;99.90;;;;;;26007140;22;20069;-62
2023/05/15 13:34:13;;;;;;;6.57;5.97;;;19.60;99.90;;;;;;25964572;22;20020;-60
2023/05/15 13:44:14;;;;;;;7.90;7.20;;;16.20;99.90;;;;;;25964693;22;20011;-50
2023/05/15 13:54:16;;;;;;;8.15;7.20;;;14.70;99.90;;;;;;25964413;22;20007;-50
2023/05/15 14:04:17;;;;;;;4.55;4.15;;;15.10;99.90;;;;;;25968758;22;20026;-48
2023/05/15 14:14:19;;;;;;;7.43;5.10;;;18.20;99.90;;;;;;25972364;22;20007;-52
2023/05/15 14:24:21;;;;;;;6.70;5.82;;;19.00;99.90;;;;;;25971690;22;20016;-61
2023/05/15 14:34:23;;;;;;;7.03;6.32;;;16.40;99.90;;;;;;25971023;22;20374;-52
2023/05/15 14:44:24;;;;;;;8.77;7.88;;;14.70;99.90;;;;;;25970713;22;20007;-61
2023/05/15 14:54:26;;;;;;;13.23;10.82;;;13.80;99.90;;;;;;25970645;22;20077;-60
2023/05/15 15:04:33;;;;;;;10.25;8.18;;;13.30;99.90;;;;;;25969906;22;20011;-56
2023/05/15 15:14:35;;;;;;;11.10;9.88;;;13.60;99.90;;;;;;26011437;22;20003;-51
2023/05/15 15:24:37;;;;;;;11.40;10.20;;;12.80;99.90;;;;;;25968832;22;20006;-61
2023/05/15 15:34:38;;;;;;;12.00;10.70;;;12.30;99.90;;;;;;25968602;22;20004;-50
2023/05/15 15:44:42;;;;;;;14.75;13.25;;;12.00;99.90;;;;;;25968327;22;20092;-50
2023/05/15 15:54:46;;;;;;;17.90;16.10;;;11.70;99.90;;;;;;25968044;22;20008;-55
2023/05/15 16:04:49;;;;;;;19.58;17.52;;;11.50;99.90;;;;;;25967104;22;20060;-61
2023/05/15 16:14:51;;;;;;;17.35;15.55;;;11.20;99.90;;;;;;25966489;22;20012;-61
2023/05/15 16:24:53;;;;;;;13.70;12.10;;;11.30;99.90;;;;;;25966301;22;20003;-61
2023/05/15 16:34:55;;;;;;;8.60;7.45;;;11.70;99.90;;;;;;25965078;22;20014;-61
2023/05/15 16:44:57;;;;;;;7.15;5.65;;;12.60;99.90;;;;;;25968162;22;20014;-61
2023/05/15 16:54:58;;;;;;;5.53;4.70;;;13.20;99.90;;;;;;25938888;22;20381;-62
2023/05/15 17:05:01;;;;;;;9.00;8.05;;;13.10;99.90;;;;;;25938698;22;20004;-61
2023/05/15 17:15:03;;;;;;;9.95;8.25;;;13.10;99.90;;;;;;25965394;22;20003;-58
2023/05/15 17:25:07;;;;;;;11.02;9.93;;;12.50;99.90;;;;;;25966502;22;20495;-52
2023/05/15 17:35:09;;;;;;;10.77;9.68;;;11.70;99.90;;;;;;25964577;22;20087;-61
2023/05/15 17:45:11;;;;;;;9.10;8.07;;;10.80;99.90;;;;;;25973266;22;20349;-51
2023/05/15 17:55:13;;;;;;;6.72;5.93;;;10.10;99.90;;;;;;25972572;22;20057;-52
2023/05/15 18:05:14;;;;;;;6.00;5.13;;;9.60;99.90;;;;;;25972357;22;20015;-51
2023/05/15 18:15:16;;;;;;;6.22;5.57;;;9.20;99.90;;;;;;25971996;22;20004;-50
2023/05/15 18:25:18;;;;;;;6.88;5.80;;;8.90;99.90;;;;;;25971928;22;20105;-52
2023/05/15 18:35:19;;;;;;;8.10;5.82;;;8.50;99.90;;;;;;25971094;22;20007;-50
2023/05/15 18:45:22;;;;;;;12.80;7.45;;;8.20;99.90;;;;;;25969682;22;20527;-59
2023/05/15 18:55:25;;;;;;;7.63;6.18;;;7.80;99.90;;;;;;25971628;22;20492;-59
2023/05/15 19:05:27;;;;;;;9.05;7.70;;;7.60;99.90;;;;;;25968508;22;20034;-52
2023/05/15 19:15:28;;;;;;;8.75;6.60;;;7.40;99.90;;;;;;25968530;22;20007;-51
2023/05/15 19:25:30;;;;;;;6.05;4.80;;;7.50;99.90;;;;;;25968898;22;20003;-51
2023/05/15 19:35:32;;;;;;;2.28;2.00;;;7.70;99.90;;;;;;25967138;22;20008;-50
2023/05/15 19:45:34;;;;;;;2.95;1.88;;;7.80;99.90;;;;;;25967983;22;20012;-58
2023/05/15 19:55:35;;;;;;;3.75;2.10;;;7.60;99.90;;;;;;25966950;22;20038;-51
2023/05/15 20:05:40;;;;;;;2.97;2.20;;;7.40;99.90;;;;;;25964222;22;20012;-52
2023/05/15 20:15:42;;;;;;;1.80;1.30;;;7.30;99.90;;;;;;25966130;22;20008;-59
2023/05/15 20:25:44;;;;;;;3.53;1.88;;;7.30;99.90;;;;;;25965961;22;20000;-51
2023/05/15 20:35:46;;;;;;;2.50;1.63;;;7.40;99.90;;;;;;25965080;22;20012;-59
2023/05/15 20:45:48;;;;;;;2.17;1.98;;;7.60;99.90;;;;;;25966329;22;20141;-49
2023/05/15 20:55:49;;;;;;;4.28;2.13;;;7.90;99.90;;;;;;25964818;22;20327;-53
2023/05/15 21:05:51;;;;;;;1.85;1.63;;;8.30;99.90;;;;;;25937651;22;20010;-59
2023/05/15 21:15:53;;;;;;;2.67;1.40;;;8.10;99.90;;;;;;25936189;22;20004;-50
2023/05/15 21:25:55;;;;;;;1.85;1.17;;;7.90;99.90;;;;;;25937701;22;20347;-51
2023/05/15 21:35:57;;;;;;;1.23;1.00;;;7.60;99.90;;;;;;25964637;22;20008;-59
2023/05/15 21:45:58;;;;;;;0.65;0.55;;;7.40;99.90;;;;;;25961018;22;20015;-51
2023/05/15 21:56:01;;;;;;;1.10;0.70;;;7.40;99.90;;;;;;25964445;22;20509;-59
2023/05/15 22:06:03;;;;;;;2.47;0.73;;;7.40;99.90;;;;;;25964342;22;20427;-51
2023/05/15 22:16:05;;;;;;;1.15;0.98;;;7.40;99.90;;;;;;25963987;22;20500;-58
2023/05/15 22:26:07;;;;;;;2.50;1.00;;;7.40;99.90;;;;;;25970340;22;20083;-50
2023/05/15 22:36:09;;;;;;;1.70;0.43;;;7.50;99.90;;;;;;25971138;22;20323;-49
2023/05/15 22:46:11;;;;;;;1.10;0.70;;;7.80;99.90;;;;;;25970955;22;20382;-47
2023/05/15 22:56:12;;;;;;;0.80;0.47;;;8.20;99.90;;;;;;25970562;22;20095;-49
2023/05/15 23:06:17;;;;;;;2.50;0.45;;;8.40;99.90;;;;;;25970034;22;20011;-50
2023/05/15 23:16:19;;;;;;;0.40;0.30;;;8.50;99.90;;;;;;25969615;22;20003;-49
2023/05/15 23:26:21;;;;;;;0.40;0.30;;;8.40;99.90;;;;;;25942235;22;20007;-60
2023/05/15 23:36:22;;;;;;;3.85;0.60;;;8.70;99.90;;;;;;25968266;22;20008;-50
2023/05/15 23:46:24;;;;;;;0.75;0.40;;;8.90;99.90;;;;;;25968351;22;20015;-47
2023/05/15 23:56:26;;;;;;;0.63;0.35;;;9.00;99.90;;;;;;25968020;22;20381;-51
